• Join FlightAware (Why Join?)
  • Login
  • US Flag 
07:58PM EDT


 

Airport Tracker/Info


-or-


 

Live Flight TrackerFlight Track Log ✈ VET90 ✈ 19-Sep-2013 ✈ KGMU - KPDK

Flight Track Log - Related Links

Times and Time Zones

All times are in EDT time to prevent confusion due to time zone crossing. See the VET90 flight status page for this flight to view local times or setup timezone preferences in your user account.

Time Position Orientation Groundspeed Altitude Reporting Facility
EDT Latitude Longitude Course Direction KTS MPH feet Rate Location/Type
06:19PM 34.8550 -82.4719 273° West 154 177 4,400  Level Atlanta Center
06:20PM 34.8575 -82.5250 273° West 167 192 5,900 1,500 Climbing Atlanta Center
06:21PM 34.8603 -82.5781 274° West 167 192 7,500 1,500 Climbing Atlanta Center
06:22PM 34.8589 -82.6314 268° West 162 186 9,000 1,200 Climbing Atlanta Center
06:23PM 34.8450 -82.6847 252° West 157 181 9,900 480 Climbing Atlanta Center
06:24PM 34.8308 -82.7458 254° West 175 201 10,000  Climbing Atlanta Center
06:25PM 34.8108 -82.8194 252° West 206 237 10,000  Level Atlanta Center
06:26PM 34.7928 -82.8956 254° West 226 260 10,000  Level Atlanta Center
06:27PM 34.7767 -82.9667 255° West 231 266 10,000  Level Atlanta Center
06:28PM 34.7564 -83.0453 253° West 231 266 10,000  Level Atlanta Center
06:29PM 34.7403 -83.1186 255° West 231 266 10,000  Level Atlanta Center
06:30PM 34.7200 -83.1972 253° West 231 266 10,000  Level Atlanta Center
06:31PM 34.6914 -83.2683 244° Southwest 237 273 10,000  Level Atlanta Center
06:32PM 34.6394 -83.3192 219° Southwest 245 282 10,000 -60 Level Atlanta Center
06:33PM 34.5917 -83.3750 224° Southwest 236 272 9,900 -360 Descending Atlanta Center
06:34PM 34.5336 -83.4386 222° Southwest 250 288 9,300 -600 Descending Atlanta Center
06:35PM 34.4839 -83.4944 223° Southwest 250 288 8,700 -660 Descending Atlanta Center
06:36PM 34.4319 -83.5553 224° Southwest 250 288 8,000 -660 Descending Atlanta Center
06:37PM 34.3842 -83.6083 223° Southwest 245 282 7,400 -600 Descending Atlanta Center
06:38PM 34.3342 -83.6639 223° Southwest 245 282 6,800 -540 Descending Atlanta Center
06:39PM 34.2906 -83.7144 224° Southwest 245 282 6,400 -420 Descending Atlanta Center
06:40PM 34.2386 -83.7725 223° Southwest 240 276 6,000 -240 Descending Atlanta Center
06:41PM 34.1928 -83.8253 224° Southwest 240 276 6,000  Level Atlanta Center
06:42PM 34.1553 -83.8706 225° Southwest 230 265 6,000  Level Atlanta Center
06:43PM 34.1094 -83.9208 222° Southwest 230 265 6,000 -180 Level Atlanta Center
06:44PM 34.0697 -83.9736 228° Southwest 225 259 5,700 -480 Descending Atlanta Center
06:45PM 34.0342 -84.0339 235° Southwest 224 258 5,100 -600 Descending Atlanta Center
06:46PM 33.9989 -84.0964 236° Southwest 229 264 4,500 -660 Descending Atlanta Center
06:46PM 33.9667 -84.1167 208° Southwest 226 260 4,100 -360 Descending Atlanta TRACON
06:47PM 33.9167 -84.1667 220° Southwest 214 246 4,000 -240 Descending Atlanta TRACON
06:48PM 33.8667 -84.2167 220° Southwest 216 249 3,600 -480 Descending Atlanta TRACON
06:49PM 33.8333 -84.2667 231° Southwest 217 250 3,100 -900 Descending Atlanta TRACON
06:50PM 33.8500 -84.3167 292° West 177 204 1,900 -1,200 Descending Atlanta TRACON
06:52PM 33.8667 -84.3000 40° Northeast  Level FlightAware Approximate
06:59PM 33.8756 -84.3020 40° Northeast  Level Estimated